Airport View

Enter AWOS ICAO identifier for current METAR.

ex. KFNL

KSRQ 202353Z 07009KT 10SM CLR 28/19 A3005 RMK AO2 SLP174 60004 T02780189 10300 20256 53003

21 Sep 2019 00:25

Frequency: 124.375

Phone: 941-359-0117

Other Area AWOS: KVNC - KSPG - KMCF - KTPF

TAF KSRQ 202343Z 2100/2124 07012KT P6SM FEW050 BKN090 FM210400 07009KT P6SM FEW250 FM211400 08013G21KT P6SM SCT040 SCT250